Turks and Caicos Islands Weather

[source: ADDS]
METAR
MBPV 222230Z 2300/2400 10015KT 9999 SCT025 MBGT 222230Z 2300/2400 10015KT 9999 SCT025 TAF
MBPV 222230Z 2300/2400 10015KT 9999 SCT025 =
MBGT 222230Z 2300/2400 10015KT 9999 SCT025 =
SR / SS: 10:18 / 23:33 UTC (MBPV 2014-07-22)
E-mail Print PDF
Weather